createdAt,value
2018-06-27T00:00:52.508Z,71.25
2018-06-27T00:03:21.978Z,70.68
2018-06-27T00:05:51.573Z,70.68
2018-06-27T00:08:20.964Z,70.87
2018-06-27T00:10:50.430Z,70.95
2018-06-27T00:13:19.920Z,71.17
2018-06-27T00:15:49.417Z,71.15
2018-06-27T00:18:18.898Z,71.27
2018-06-27T00:20:48.600Z,70.86
2018-06-27T00:23:18.126Z,71.56
2018-06-27T00:25:47.552Z,72.20
2018-06-27T00:28:17.146Z,72.20
2018-06-27T00:30:46.547Z,72.05
2018-06-27T00:33:15.995Z,72.53
2018-06-27T00:35:45.425Z,70.49
2018-06-27T00:38:17.378Z,70.96
2018-06-27T00:40:47.012Z,71.10
2018-06-27T00:43:17.247Z,72.19
2018-06-27T00:45:46.642Z,72.30
2018-06-27T00:48:16.093Z,72.62
2018-06-27T00:50:47.657Z,72.66
2018-06-27T00:53:16.995Z,72.54
2018-06-27T00:55:46.393Z,72.23
2018-06-27T00:58:15.906Z,72.30
2018-06-27T01:00:45.471Z,72.62
2018-06-27T01:03:14.893Z,72.18
2018-06-27T01:05:44.317Z,71.90
2018-06-27T01:08:13.796Z,72.09
2018-06-27T01:10:43.237Z,71.84
2018-06-27T01:13:12.567Z,72.38
2018-06-27T01:15:41.997Z,71.67
2018-06-27T01:18:11.403Z,72.21
2018-06-27T01:20:41.723Z,71.67
2018-06-27T01:23:11.140Z,72.62
2018-06-27T01:25:40.514Z,72.43
2018-06-27T01:28:09.978Z,71.90
2018-06-27T01:30:39.607Z,72.08
2018-06-27T01:33:09.062Z,71.96
2018-06-27T01:35:38.460Z,72.06
2018-06-27T01:38:07.949Z,73.00
2018-06-27T01:40:38.230Z,72.44
2018-06-27T01:43:07.741Z,72.51
2018-06-27T01:45:37.149Z,71.66
2018-06-27T01:48:07.014Z,72.10
2018-06-27T01:50:36.445Z,72.04
2018-06-27T01:53:05.986Z,72.21
2018-06-27T01:55:35.317Z,72.58
2018-06-27T01:58:04.692Z,73.22
2018-06-27T02:00:34.090Z,72.66
2018-06-27T02:03:03.495Z,72.99
2018-06-27T02:05:33.037Z,73.32
2018-06-27T02:08:02.516Z,73.25
2018-06-27T02:10:32.030Z,73.18
2018-06-27T02:13:01.479Z,72.92
2018-06-27T02:15:30.881Z,73.29
2018-06-27T02:18:00.302Z,73.27
2018-06-27T02:20:29.695Z,73.12
2018-06-27T02:23:09.837Z,72.30
2018-06-27T02:25:39.931Z,72.99
2018-06-27T02:28:10.383Z,73.23
2018-06-27T02:30:40.300Z,72.60
2018-06-27T02:33:09.718Z,74.24
2018-06-27T02:35:39.159Z,73.43
2018-06-27T02:38:08.674Z,73.26
2018-06-27T02:40:37.777Z,73.45
2018-06-27T02:43:07.323Z,72.83
2018-06-27T02:45:36.726Z,73.21
2018-06-27T02:48:06.454Z,73.91
2018-06-27T02:50:36.059Z,74.03
2018-06-27T02:53:05.667Z,74.45
2018-06-27T02:55:35.137Z,73.61
2018-06-27T02:58:04.626Z,73.27
2018-06-27T03:00:33.700Z,73.71
2018-06-27T03:03:03.095Z,74.03
2018-06-27T03:05:32.550Z,73.50
2018-06-27T03:08:02.023Z,73.08
2018-06-27T03:10:31.416Z,74.12
2018-06-27T03:13:00.837Z,73.96
2018-06-27T03:15:30.203Z,72.96
2018-06-27T03:17:59.574Z,72.96
2018-06-27T03:20:28.988Z,73.32
2018-06-27T03:22:58.313Z,72.10
2018-06-27T03:25:29.766Z,72.20
2018-06-27T03:27:59.107Z,71.48
2018-06-27T03:30:28.491Z,71.57
2018-06-27T03:32:58.098Z,71.39
2018-06-27T03:35:27.452Z,71.85
2018-06-27T03:37:56.960Z,72.05
2018-06-27T03:40:26.666Z,70.99
2018-06-27T03:42:56.137Z,72.02
2018-06-27T03:45:25.582Z,71.92
2018-06-27T03:47:55.032Z,72.13
2018-06-27T03:50:25.296Z,72.46
2018-06-27T03:52:54.646Z,72.15
2018-06-27T03:55:24.375Z,71.73
2018-06-27T03:57:53.851Z,72.45
2018-06-27T04:00:23.227Z,72.65
2018-06-27T04:02:52.628Z,71.13
2018-06-27T04:05:22.333Z,71.07
2018-06-27T04:07:52.114Z,70.48
2018-06-27T04:10:21.551Z,71.24
2018-06-27T04:12:50.977Z,71.70
2018-06-27T04:15:20.422Z,71.11
2018-06-27T04:17:49.928Z,71.42
2018-06-27T04:20:19.506Z,70.99
2018-06-27T04:22:48.969Z,70.28
2018-06-27T04:25:18.386Z,70.38
2018-06-27T04:27:47.882Z,70.42
2018-06-27T04:30:17.483Z,71.07
2018-06-27T04:32:46.629Z,71.29
2018-06-27T04:35:16.183Z,70.90
2018-06-27T04:37:45.603Z,71.15
2018-06-27T04:40:15.703Z,69.40
2018-06-27T04:42:45.162Z,69.07
2018-06-27T04:45:14.537Z,70.80
2018-06-27T04:47:43.926Z,69.87
2018-06-27T04:50:13.319Z,70.84
2018-06-27T04:52:42.749Z,70.01
2018-06-27T04:55:12.306Z,68.07
2018-06-27T04:57:47.790Z,69.23
2018-06-27T05:00:17.205Z,69.67
2018-06-27T05:02:46.723Z,68.64
2018-06-27T05:05:16.125Z,67.50
2018-06-27T05:07:45.672Z,68.90
2018-06-27T05:10:15.074Z,69.95
2018-06-27T05:12:44.598Z,67.52
2018-06-27T05:15:13.999Z,68.57
2018-06-27T05:17:43.586Z,68.99
2018-06-27T05:20:12.955Z,66.97
2018-06-27T05:22:42.459Z,67.83
2018-06-27T05:25:11.831Z,68.29
2018-06-27T05:27:41.495Z,68.17
2018-06-27T05:30:10.994Z,66.26
2018-06-27T05:32:40.493Z,66.66
2018-06-27T05:35:09.996Z,66.57
2018-06-27T05:37:39.791Z,66.41
2018-06-27T05:40:09.186Z,65.11
2018-06-27T05:42:38.702Z,65.65
2018-06-27T05:45:08.123Z,65.11
2018-06-27T05:47:37.520Z,65.43
2018-06-27T05:50:06.998Z,64.48
2018-06-27T05:52:36.380Z,64.58
2018-06-27T05:55:10.138Z,65.21
2018-06-27T05:57:40.974Z,65.13
2018-06-27T06:00:12.614Z,65.82
2018-06-27T06:02:42.337Z,63.85
2018-06-27T06:05:11.695Z,64.06
2018-06-27T06:07:41.164Z,65.14
2018-06-27T06:10:10.548Z,63.87
2018-06-27T06:12:39.986Z,63.78
2018-06-27T06:15:09.372Z,64.27
2018-06-27T06:17:38.762Z,63.74
2018-06-27T06:20:08.165Z,64.51
2018-06-27T06:22:37.550Z,64.41
2018-06-27T06:25:06.959Z,63.67
2018-06-27T06:27:36.304Z,64.19
2018-06-27T06:30:06.263Z,65.51
2018-06-27T06:32:35.613Z,64.42
2018-06-27T06:35:05.040Z,66.34
2018-06-27T06:37:34.400Z,65.54
2018-06-27T06:40:03.866Z,64.74
2018-06-27T06:42:33.284Z,62.56
2018-06-27T06:45:02.636Z,62.98
2018-06-27T06:47:31.972Z,62.63
2018-06-27T06:50:01.454Z,62.79
2018-06-27T06:52:30.874Z,64.99
2018-06-27T06:55:00.341Z,65.08
2018-06-27T06:57:30.339Z,64.43
2018-06-27T06:59:59.754Z,64.26
2018-06-27T07:02:29.198Z,64.86
2018-06-27T07:04:58.659Z,65.83
2018-06-27T07:07:28.056Z,64.27
2018-06-27T07:09:57.381Z,63.40
2018-06-27T07:12:26.792Z,62.65
2018-06-27T07:14:56.210Z,61.49
2018-06-27T07:17:25.661Z,62.88
2018-06-27T07:19:55.128Z,64.17
2018-06-27T07:22:24.626Z,62.31
2018-06-27T07:24:54.059Z,62.07
2018-06-27T07:27:23.402Z,62.35
2018-06-27T07:29:52.908Z,64.06
2018-06-27T07:32:22.330Z,63.14
2018-06-27T07:34:51.714Z,63.37
2018-06-27T07:37:21.115Z,63.36
2018-06-27T07:39:50.596Z,62.32
2018-06-27T07:42:20.038Z,60.77
2018-06-27T07:44:49.641Z,61.74
2018-06-27T07:47:19.071Z,60.71
2018-06-27T07:49:48.591Z,62.35
2018-06-27T07:52:18.051Z,61.82
2018-06-27T07:54:47.562Z,60.81
2018-06-27T07:57:16.943Z,58.88
2018-06-27T07:59:46.361Z,59.19
2018-06-27T08:02:16.488Z,58.80
2018-06-27T08:04:45.993Z,59.15
2018-06-27T08:07:16.433Z,59.09
2018-06-27T08:09:45.926Z,60.07
2018-06-27T08:12:15.632Z,60.48
2018-06-27T08:14:45.037Z,61.09
2018-06-27T08:17:14.489Z,60.88
2018-06-27T08:19:43.867Z,60.97
2018-06-27T08:22:13.245Z,61.19
2018-06-27T08:24:42.715Z,60.11
2018-06-27T08:27:12.153Z,60.35
2018-06-27T08:29:41.561Z,61.40
2018-06-27T08:32:10.955Z,61.09
2018-06-27T08:34:40.397Z,61.16
2018-06-27T08:37:10.678Z,60.03
2018-06-27T08:39:40.091Z,61.59
2018-06-27T08:42:09.551Z,61.91
2018-06-27T08:44:39.116Z,61.89
2018-06-27T08:47:08.614Z,60.19
2018-06-27T08:49:38.044Z,61.91
2018-06-27T08:52:07.577Z,61.95
2018-06-27T08:54:40.990Z,62.01
2018-06-27T08:57:10.524Z,59.79
2018-06-27T08:59:39.971Z,59.94
2018-06-27T09:02:09.674Z,59.79
2018-06-27T09:04:39.055Z,59.89
2018-06-27T09:07:09.040Z,57.03
2018-06-27T09:09:38.410Z,58.11
2018-06-27T09:12:07.796Z,57.53
2018-06-27T09:14:37.257Z,58.96
2018-06-27T09:17:06.909Z,60.71
2018-06-27T09:19:36.353Z,61.41
2018-06-27T09:22:05.760Z,61.75
2018-06-27T09:24:35.175Z,63.19
2018-06-27T09:27:04.567Z,64.69
2018-06-27T09:29:34.007Z,62.18
2018-06-27T09:32:03.384Z,61.58
2018-06-27T09:34:32.918Z,59.34
2018-06-27T09:37:02.414Z,62.42
2018-06-27T09:39:31.984Z,56.75
2018-06-27T09:42:01.474Z,55.99
2018-06-27T09:44:30.883Z,55.56
2018-06-27T09:47:00.472Z,55.95
2018-06-27T09:49:29.889Z,54.46
2018-06-27T09:51:59.359Z,56.63
2018-06-27T09:54:29.649Z,56.48
2018-06-27T09:56:59.014Z,55.34
2018-06-27T09:59:29.087Z,52.92
2018-06-27T10:01:58.562Z,54.11
2018-06-27T10:04:28.278Z,52.82
2018-06-27T10:06:57.615Z,53.20
2018-06-27T10:09:27.307Z,54.56
2018-06-27T10:11:56.805Z,53.41
2018-06-27T10:14:26.197Z,51.44
2018-06-27T10:16:55.700Z,52.26
2018-06-27T10:19:25.001Z,54.47
2018-06-27T10:21:54.451Z,55.39
2018-06-27T10:24:23.891Z,55.47
2018-06-27T10:26:53.317Z,55.31
2018-06-27T10:29:22.728Z,54.71
2018-06-27T10:31:52.126Z,54.07
2018-06-27T10:34:21.800Z,53.11
2018-06-27T10:36:51.239Z,52.58
2018-06-27T10:39:20.635Z,51.53
2018-06-27T10:41:50.722Z,50.24
2018-06-27T10:44:20.258Z,51.19
2018-06-27T10:46:49.714Z,50.96
2018-06-27T10:49:19.152Z,48.72
2018-06-27T10:51:48.722Z,46.95
2018-06-27T10:54:18.293Z,46.23
2018-06-27T10:56:47.721Z,47.46
2018-06-27T10:59:17.152Z,45.81
2018-06-27T11:01:46.630Z,45.98
2018-06-27T11:04:16.659Z,44.08
2018-06-27T11:06:46.086Z,43.89
2018-06-27T11:09:15.495Z,40.75
2018-06-27T11:11:44.895Z,41.00
2018-06-27T11:14:14.322Z,43.77
2018-06-27T11:16:43.667Z,43.44
2018-06-27T11:19:13.003Z,44.59
2018-06-27T11:21:42.346Z,43.67
2018-06-27T11:24:11.738Z,43.00
2018-06-27T11:26:41.303Z,41.49
2018-06-27T11:29:10.702Z,43.13
2018-06-27T11:31:40.132Z,40.79
2018-06-27T11:34:09.575Z,41.56
2018-06-27T11:36:38.969Z,44.57
2018-06-27T11:39:11.394Z,43.13
2018-06-27T11:41:41.738Z,40.64
2018-06-27T11:44:11.337Z,41.53
2018-06-27T11:46:40.692Z,39.87
2018-06-27T11:49:10.090Z,40.89
2018-06-27T11:51:39.672Z,42.01
2018-06-27T11:54:09.051Z,41.65
2018-06-27T11:56:38.653Z,41.61
2018-06-27T11:59:08.308Z,40.10
2018-06-27T12:01:37.734Z,40.78
2018-06-27T12:04:07.121Z,43.01
2018-06-27T12:06:36.518Z,41.70
2018-06-27T12:09:09.326Z,40.38
2018-06-27T12:11:38.848Z,39.47
2018-06-27T12:14:08.218Z,38.90
2018-06-27T12:16:37.898Z,39.57
2018-06-27T12:19:07.300Z,39.88
2018-06-27T12:21:36.817Z,39.73
2018-06-27T12:24:06.214Z,41.83
2018-06-27T12:26:35.606Z,44.29
2018-06-27T12:29:04.954Z,48.05
2018-06-27T12:31:34.924Z,49.24
2018-06-27T12:34:04.463Z,51.83
2018-06-27T12:36:33.843Z,55.51
2018-06-27T12:39:04.009Z,57.60
2018-06-27T12:41:33.452Z,58.24
2018-06-27T12:44:02.866Z,60.10
2018-06-27T12:46:32.231Z,59.79
2018-06-27T12:49:01.652Z,60.75
2018-06-27T12:51:31.103Z,59.45
2018-06-27T12:54:00.508Z,58.09
2018-06-27T12:56:29.826Z,61.27
2018-06-27T12:58:59.198Z,60.72
2018-06-27T13:01:29.669Z,58.42
2018-06-27T13:03:59.372Z,53.99
2018-06-27T13:06:29.230Z,56.16
2018-06-27T13:08:58.608Z,57.33
2018-06-27T13:11:27.963Z,53.70
2018-06-27T13:13:57.390Z,53.93
2018-06-27T13:16:27.128Z,50.32
2018-06-27T13:18:56.549Z,53.98
2018-06-27T13:21:25.918Z,47.90
2018-06-27T13:23:55.393Z,50.30
2018-06-27T13:26:24.930Z,46.63
2018-06-27T13:28:54.291Z,44.68
2018-06-27T13:31:23.652Z,42.78
2018-06-27T13:33:53.015Z,41.06
2018-06-27T13:36:22.378Z,43.27
2018-06-27T13:38:51.862Z,42.09
2018-06-27T13:41:21.320Z,41.67
2018-06-27T13:43:50.821Z,44.19
2018-06-27T13:46:20.351Z,42.84
2018-06-27T13:48:49.854Z,42.65
2018-06-27T13:51:19.499Z,41.96
2018-06-27T13:53:48.965Z,41.69
2018-06-27T13:56:18.609Z,41.82
2018-06-27T13:58:48.203Z,41.58
2018-06-27T14:01:17.995Z,41.68
2018-06-27T14:03:47.445Z,44.38
2018-06-27T14:06:16.840Z,43.94
2018-06-27T14:08:46.262Z,44.13
2018-06-27T14:11:15.688Z,44.36
2018-06-27T14:13:45.146Z,43.36
2018-06-27T14:16:14.544Z,45.04
2018-06-27T14:18:44.012Z,50.08
2018-06-27T14:21:13.339Z,52.57
2018-06-27T14:23:42.667Z,46.34
2018-06-27T14:26:12.100Z,57.27
2018-06-27T14:28:41.612Z,57.96
2018-06-27T14:31:11.038Z,56.41
2018-06-27T14:33:40.395Z,59.50
2018-06-27T14:36:09.870Z,58.78
2018-06-27T14:38:39.258Z,60.14
2018-06-27T14:41:08.590Z,59.46
2018-06-27T14:43:38.042Z,55.81
2018-06-27T14:46:07.390Z,51.76
2018-06-27T14:48:37.179Z,56.66
2018-06-27T14:51:06.597Z,56.55
2018-06-27T14:53:35.993Z,57.91
2018-06-27T14:56:05.345Z,60.20
2018-06-27T14:58:34.724Z,60.52
2018-06-27T15:01:04.731Z,60.20
2018-06-27T15:03:34.206Z,61.57
2018-06-27T15:06:03.575Z,62.81
2018-06-27T15:08:32.977Z,66.78
2018-06-27T15:11:02.407Z,66.67
2018-06-27T15:13:31.795Z,65.91
2018-06-27T15:16:01.247Z,62.82
2018-06-27T15:18:30.611Z,62.70
2018-06-27T15:21:00.050Z,62.03
2018-06-27T15:23:29.533Z,60.97
2018-06-27T15:25:59.131Z,60.09
2018-06-27T15:28:29.472Z,57.42
2018-06-27T15:30:58.961Z,54.32
2018-06-27T15:33:28.367Z,53.01
2018-06-27T15:35:57.759Z,55.03
2018-06-27T15:38:27.639Z,54.88
2018-06-27T15:40:57.074Z,54.20
2018-06-27T15:43:26.518Z,54.25
2018-06-27T15:45:55.947Z,53.71
2018-06-27T15:48:25.370Z,52.25
2018-06-27T15:50:54.825Z,52.09
2018-06-27T15:53:24.265Z,52.63
2018-06-27T15:55:53.798Z,52.75
2018-06-27T15:58:23.337Z,51.14
2018-06-27T16:00:52.791Z,50.62
2018-06-27T16:03:22.298Z,50.27
2018-06-27T16:05:51.702Z,48.79
2018-06-27T16:08:21.190Z,50.27
2018-06-27T16:10:50.726Z,53.45
2018-06-27T16:13:20.164Z,50.48
2018-06-27T16:15:49.627Z,49.09
2018-06-27T16:18:19.194Z,49.17
2018-06-27T16:20:48.695Z,48.89
2018-06-27T16:23:18.404Z,49.97
2018-06-27T16:25:48.170Z,50.33
2018-06-27T16:28:17.697Z,52.03
2018-06-27T16:30:47.246Z,53.53
2018-06-27T16:33:17.261Z,53.86
2018-06-27T16:35:46.731Z,52.79
2018-06-27T16:38:16.207Z,52.58
2018-06-27T16:40:45.735Z,52.70
2018-06-27T16:43:15.894Z,52.25
2018-06-27T16:45:46.111Z,52.45
2018-06-27T16:48:15.214Z,52.19
2018-06-27T16:50:44.953Z,51.93
2018-06-27T16:53:14.297Z,52.59
2018-06-27T16:55:43.738Z,53.80
2018-06-27T16:58:13.227Z,53.12
2018-06-27T17:00:42.760Z,50.44
2018-06-27T17:03:12.176Z,50.28
2018-06-27T17:05:41.656Z,47.21
2018-06-27T17:08:11.133Z,45.97
2018-06-27T17:10:40.768Z,45.54
2018-06-27T17:13:10.449Z,46.80
2018-06-27T17:15:40.011Z,47.06
2018-06-27T17:18:10.501Z,45.95
2018-06-27T17:20:39.908Z,46.83
2018-06-27T17:23:11.076Z,46.30
2018-06-27T17:25:40.511Z,46.16
2018-06-27T17:28:09.909Z,46.02
2018-06-27T17:30:40.000Z,47.59
2018-06-27T17:33:09.734Z,47.38
2018-06-27T17:35:39.055Z,46.80
2018-06-27T17:38:08.593Z,47.59
2018-06-27T17:40:37.975Z,48.19
2018-06-27T17:43:07.462Z,50.93
2018-06-27T17:45:38.138Z,51.04
2018-06-27T17:48:07.598Z,51.75
2018-06-27T17:50:37.056Z,51.62
2018-06-27T17:53:06.648Z,51.60
2018-06-27T17:55:36.071Z,53.61
2018-06-27T17:58:05.661Z,51.29
2018-06-27T18:00:36.270Z,54.51
2018-06-27T18:03:06.070Z,52.53
2018-06-27T18:05:35.591Z,50.24
2018-06-27T18:08:05.446Z,51.36
2018-06-27T18:10:35.114Z,51.74
2018-06-27T18:13:04.748Z,52.77
2018-06-27T18:15:34.462Z,53.60
2018-06-27T18:18:04.280Z,54.51
2018-06-27T18:20:33.925Z,54.80
2018-06-27T18:23:03.593Z,55.47
2018-06-27T18:25:33.165Z,54.39
2018-06-27T18:28:02.774Z,53.65
2018-06-27T18:30:32.484Z,53.28
2018-06-27T18:33:02.011Z,52.57
2018-06-27T18:35:31.489Z,52.58
2018-06-27T18:38:01.059Z,51.59
2018-06-27T18:40:30.534Z,51.85
2018-06-27T18:43:00.198Z,52.36
2018-06-27T18:45:29.610Z,51.95
2018-06-27T18:48:00.032Z,50.58
2018-06-27T18:50:30.392Z,50.88
2018-06-27T18:53:00.414Z,51.20
2018-06-27T18:55:29.841Z,52.26
2018-06-27T18:57:59.342Z,52.13
2018-06-27T19:00:28.887Z,54.38
2018-06-27T19:02:59.150Z,53.27
2018-06-27T19:05:28.576Z,53.69
2018-06-27T19:07:59.044Z,53.40
2018-06-27T19:10:28.810Z,54.09
2018-06-27T19:12:58.340Z,51.87
2018-06-27T19:15:27.933Z,54.78
2018-06-27T19:17:57.478Z,54.66
2018-06-27T19:20:27.086Z,54.43
2018-06-27T19:22:56.522Z,55.31
2018-06-27T19:25:25.920Z,53.50
2018-06-27T19:27:55.391Z,55.73
2018-06-27T19:30:25.026Z,56.57
2018-06-27T19:32:55.092Z,56.49
2018-06-27T19:35:24.706Z,57.55
2018-06-27T19:37:54.581Z,56.98
2018-06-27T19:40:24.132Z,57.53
2018-06-27T19:42:53.831Z,57.73
2018-06-27T19:45:23.366Z,57.63
2018-06-27T19:47:52.838Z,58.46
2018-06-27T19:50:22.402Z,58.68
2018-06-27T19:52:51.811Z,59.13
2018-06-27T19:55:21.496Z,59.41
2018-06-27T19:57:51.930Z,60.24
2018-06-27T20:00:21.479Z,60.52
2018-06-27T20:02:50.983Z,59.60
2018-06-27T20:05:20.431Z,60.31
2018-06-27T20:07:50.111Z,61.37
2018-06-27T20:10:19.535Z,60.98
2018-06-27T20:12:48.990Z,61.96
2018-06-27T20:15:18.416Z,61.72
2018-06-27T20:17:47.967Z,61.85
2018-06-27T20:20:18.595Z,61.93
2018-06-27T20:22:48.159Z,62.11
2018-06-27T20:25:17.758Z,62.95
2018-06-27T20:27:47.328Z,62.29
2018-06-27T20:30:16.789Z,63.41
2018-06-27T20:32:46.286Z,63.42
2018-06-27T20:35:15.778Z,63.21
2018-06-27T20:37:45.389Z,63.72
2018-06-27T20:40:14.820Z,63.03
2018-06-27T20:42:44.564Z,63.35
2018-06-27T20:45:14.330Z,63.65
2018-06-27T20:47:43.841Z,64.21
2018-06-27T20:50:13.547Z,64.23
2018-06-27T20:52:43.252Z,64.16
2018-06-27T20:55:12.963Z,64.39
2018-06-27T20:57:43.535Z,65.09
2018-06-27T21:00:16.062Z,64.93
2018-06-27T21:02:45.529Z,65.15
2018-06-27T21:05:15.537Z,65.02
2018-06-27T21:07:45.327Z,65.34
2018-06-27T21:10:14.741Z,65.32
2018-06-27T21:12:46.207Z,65.26
2018-06-27T21:15:15.697Z,64.98
2018-06-27T21:17:48.558Z,65.27
2018-06-27T21:20:21.382Z,64.71
2018-06-27T21:22:50.848Z,64.20
2018-06-27T21:25:20.639Z,65.44
2018-06-27T21:27:50.138Z,65.01
2018-06-27T21:30:19.845Z,65.23
2018-06-27T21:32:49.664Z,64.43
2018-06-27T21:35:19.454Z,65.14
2018-06-27T21:37:48.966Z,65.44
2018-06-27T21:40:18.514Z,64.97
2018-06-27T21:42:48.033Z,63.21
2018-06-27T21:45:17.608Z,64.03
2018-06-27T21:47:47.030Z,62.18
2018-06-27T21:50:16.478Z,63.69
2018-06-27T21:52:46.393Z,63.36
2018-06-27T21:55:15.804Z,63.72
2018-06-27T21:57:45.380Z,63.31
2018-06-27T22:00:16.081Z,63.91
2018-06-27T22:02:45.586Z,64.96
2018-06-27T22:05:15.034Z,64.96
2018-06-27T22:07:44.899Z,65.44
2018-06-27T22:10:14.297Z,65.84
2018-06-27T22:12:43.655Z,65.99
2018-06-27T22:15:13.070Z,66.26
2018-06-27T22:17:42.520Z,66.43
2018-06-27T22:20:11.899Z,66.58
2018-06-27T22:22:41.289Z,65.58
2018-06-27T22:25:10.723Z,67.30
2018-06-27T22:27:40.399Z,67.89
2018-06-27T22:30:09.826Z,67.77
2018-06-27T22:32:39.215Z,67.92
2018-06-27T22:35:08.658Z,67.98
2018-06-27T22:37:38.151Z,68.60
2018-06-27T22:40:07.591Z,68.16
2018-06-27T22:42:37.078Z,68.11
2018-06-27T22:45:06.502Z,68.11
2018-06-27T22:47:35.925Z,68.21
2018-06-27T22:50:05.572Z,65.72
2018-06-27T22:52:35.018Z,65.92
2018-06-27T22:55:04.489Z,65.27
2018-06-27T22:57:33.898Z,65.56
2018-06-27T23:00:03.442Z,64.35
2018-06-27T23:02:32.857Z,63.35
2018-06-27T23:05:02.268Z,62.97
2018-06-27T23:07:31.693Z,62.99
2018-06-27T23:10:01.153Z,63.70
2018-06-27T23:12:30.555Z,63.72
2018-06-27T23:14:59.907Z,64.37
2018-06-27T23:17:29.328Z,63.92
2018-06-27T23:19:58.730Z,63.79
2018-06-27T23:22:43.219Z,64.55
2018-06-27T23:25:13.551Z,66.40
2018-06-27T23:27:43.479Z,66.27
2018-06-27T23:30:12.903Z,66.81
2018-06-27T23:32:42.572Z,66.03
2018-06-27T23:35:11.718Z,66.66
2018-06-27T23:37:41.563Z,67.21
2018-06-27T23:40:11.084Z,67.18
2018-06-27T23:42:40.509Z,67.35
2018-06-27T23:45:09.969Z,68.07
2018-06-27T23:47:39.414Z,68.15
2018-06-27T23:50:08.917Z,68.00
2018-06-27T23:52:38.450Z,69.07
2018-06-27T23:55:08.016Z,68.57
2018-06-27T23:57:37.502Z,68.87
